sensor_id;sensor_type;location;lat;lon;timestamp;pressure;altitude;pressure_sealevel;temperature;humidity
44751;BME280;30477;48.224;11.470;2022-08-01T00:01:42;96049.78;;;22.23;50.24
44751;BME280;30477;48.224;11.470;2022-08-01T00:04:07;96041.88;;;22.23;50.39
44751;BME280;30477;48.224;11.470;2022-08-01T00:06:32;96042.56;;;22.12;50.59
44751;BME280;30477;48.224;11.470;2022-08-01T00:08:58;96045.19;;;22.12;50.68
44751;BME280;30477;48.224;11.470;2022-08-01T00:11:23;96047.81;;;22.12;50.76
44751;BME280;30477;48.224;11.470;2022-08-01T00:13:48;96042.56;;;22.12;51.00
44751;BME280;30477;48.224;11.470;2022-08-01T00:16:14;96045.41;;;22.10;51.04
44751;BME280;30477;48.224;11.470;2022-08-01T00:18:41;96043.34;;;22.13;50.99
44751;BME280;30477;48.224;11.470;2022-08-01T00:21:06;96039.31;;;22.10;51.42
44751;BME280;30477;48.224;11.470;2022-08-01T00:23:32;96042.13;;;22.15;51.10
44751;BME280;30477;48.224;11.470;2022-08-01T00:25:58;96042.13;;;22.15;51.15
44751;BME280;30477;48.224;11.470;2022-08-01T00:28:23;96037.72;;;22.09;50.94
44751;BME280;30477;48.224;11.470;2022-08-01T00:30:49;96041.38;;;22.08;51.38
44751;BME280;30477;48.224;11.470;2022-08-01T00:33:14;96047.66;;;22.07;51.31
44751;BME280;30477;48.224;11.470;2022-08-01T00:35:39;96046.88;;;22.00;51.37
44751;BME280;30477;48.224;11.470;2022-08-01T00:38:05;96049.91;;;22.03;51.20
44751;BME280;30477;48.224;11.470;2022-08-01T00:40:30;96049.97;;;21.97;51.24
44751;BME280;30477;48.224;11.470;2022-08-01T00:42:55;96047.47;;;22.02;51.08
44751;BME280;30477;48.224;11.470;2022-08-01T00:45:21;96053.00;;;21.94;51.16
44751;BME280;30477;48.224;11.470;2022-08-01T00:47:46;96051.22;;;21.87;50.98
44751;BME280;30477;48.224;11.470;2022-08-01T00:50:12;96057.56;;;21.80;50.84
44751;BME280;30477;48.224;11.470;2022-08-01T00:52:38;96049.66;;;21.73;51.18
44751;BME280;30477;48.224;11.470;2022-08-01T00:55:04;96051.28;;;21.74;51.02
44751;BME280;30477;48.224;11.470;2022-08-01T00:57:29;96050.84;;;21.77;51.01
44751;BME280;30477;48.224;11.470;2022-08-01T00:59:55;96053.31;;;21.72;50.79
44751;BME280;30477;48.224;11.470;2022-08-01T01:02:21;96051.31;;;21.67;51.00
44751;BME280;30477;48.224;11.470;2022-08-01T01:04:46;96038.16;;;21.67;50.86
44751;BME280;30477;48.224;11.470;2022-08-01T01:07:32;96052.38;;;21.60;51.04
44751;BME280;30477;48.224;11.470;2022-08-01T01:10:02;96050.41;;;21.48;51.29
44751;BME280;30477;48.224;11.470;2022-08-01T01:12:35;96047.75;;;21.48;51.02
44751;BME280;30477;48.224;11.470;2022-08-01T01:15:10;96052.19;;;21.41;51.19
44751;BME280;30477;48.224;11.470;2022-08-01T01:17:48;96050.81;;;21.45;51.12
44751;BME280;30477;48.224;11.470;2022-08-01T01:20:17;96050.00;;;21.45;51.11
44751;BME280;30477;48.224;11.470;2022-08-01T01:25:26;96059.72;;;21.44;51.27
44751;BME280;30477;48.224;11.470;2022-08-01T01:30:53;96055.25;;;21.38;50.99
44751;BME280;30477;48.224;11.470;2022-08-01T01:33:21;96054.84;;;21.41;51.25
44751;BME280;30477;48.224;11.470;2022-08-01T01:35:51;96054.06;;;21.34;51.31
44751;BME280;30477;48.224;11.470;2022-08-01T01:38:21;96053.88;;;21.29;51.25
44751;BME280;30477;48.224;11.470;2022-08-01T01:40:49;96050.44;;;21.22;51.47
44751;BME280;30477;48.224;11.470;2022-08-01T01:43:16;96053.69;;;21.24;51.24
44751;BME280;30477;48.224;11.470;2022-08-01T01:45:44;96047.81;;;21.22;51.57
44751;BME280;30477;48.224;11.470;2022-08-01T01:48:13;96051.66;;;21.26;51.12
44751;BME280;30477;48.224;11.470;2022-08-01T01:50:42;96048.25;;;21.19;51.38
44751;BME280;30477;48.224;11.470;2022-08-01T01:53:08;96056.53;;;21.22;51.34
44751;BME280;30477;48.224;11.470;2022-08-01T01:55:37;96054.31;;;21.19;51.22
44751;BME280;30477;48.224;11.470;2022-08-01T01:58:04;96057.91;;;21.25;51.46
44751;BME280;30477;48.224;11.470;2022-08-01T02:00:32;96058.72;;;21.32;51.26
44751;BME280;30477;48.224;11.470;2022-08-01T02:02:58;96066.19;;;21.35;51.13
44751;BME280;30477;48.224;11.470;2022-08-01T02:05:26;96060.75;;;21.30;51.00
44751;BME280;30477;48.224;11.470;2022-08-01T02:07:54;96062.19;;;21.26;51.05
44751;BME280;30477;48.224;11.470;2022-08-01T02:10:20;96063.00;;;21.20;51.27
44751;BME280;30477;48.224;11.470;2022-08-01T02:12:48;96073.38;;;21.15;51.17
44751;BME280;30477;48.224;11.470;2022-08-01T02:15:16;96069.31;;;21.05;51.27
44751;BME280;30477;48.224;11.470;2022-08-01T02:17:46;96069.34;;;20.99;51.70
44751;BME280;30477;48.224;11.470;2022-08-01T02:20:13;96077.44;;;20.91;51.74
44751;BME280;30477;48.224;11.470;2022-08-01T02:22:49;96071.38;;;20.90;51.87
44751;BME280;30477;48.224;11.470;2022-08-01T02:25:25;96073.19;;;20.96;52.02
44751;BME280;30477;48.224;11.470;2022-08-01T02:27:57;96074.63;;;20.92;51.96
44751;BME280;30477;48.224;11.470;2022-08-01T02:30:32;96072.78;;;20.86;52.17
44751;BME280;30477;48.224;11.470;2022-08-01T02:33:19;96076.25;;;20.80;52.07
44751;BME280;30477;48.224;11.470;2022-08-01T02:35:49;96079.47;;;20.82;52.18
44751;BME280;30477;48.224;11.470;2022-08-01T02:38:17;96080.69;;;20.86;51.86
44751;BME280;30477;48.224;11.470;2022-08-01T02:40:46;96074.41;;;20.87;51.72
44751;BME280;30477;48.224;11.470;2022-08-01T02:43:15;96066.50;;;20.87;51.50
44751;BME280;30477;48.224;11.470;2022-08-01T02:45:45;96075.59;;;20.91;51.36
44751;BME280;30477;48.224;11.470;2022-08-01T02:48:14;96078.44;;;20.83;51.56
44751;BME280;30477;48.224;11.470;2022-08-01T02:50:44;96068.97;;;20.68;51.90
44751;BME280;30477;48.224;11.470;2022-08-01T02:53:12;96078.66;;;20.61;51.76
44751;BME280;30477;48.224;11.470;2022-08-01T02:55:39;96077.88;;;20.61;52.05
44751;BME280;30477;48.224;11.470;2022-08-01T02:58:06;96074.63;;;20.65;51.88
44751;BME280;30477;48.224;11.470;2022-08-01T03:00:33;96077.88;;;20.67;51.58
44751;BME280;30477;48.224;11.470;2022-08-01T03:02:59;96087.38;;;20.68;51.84
44751;BME280;30477;48.224;11.470;2022-08-01T03:05:27;96086.56;;;20.75;51.37
44751;BME280;30477;48.224;11.470;2022-08-01T03:07:54;96087.75;;;20.79;51.44
44751;BME280;30477;48.224;11.470;2022-08-01T03:10:20;96086.75;;;20.80;51.58
44751;BME280;30477;48.224;11.470;2022-08-01T03:12:47;96093.25;;;20.71;51.13
44751;BME280;30477;48.224;11.470;2022-08-01T03:15:15;96093.03;;;20.65;51.54
44751;BME280;30477;48.224;11.470;2022-08-01T03:17:44;96095.47;;;20.67;51.87
44751;BME280;30477;48.224;11.470;2022-08-01T03:20:14;96090.19;;;20.74;51.62
44751;BME280;30477;48.224;11.470;2022-08-01T03:22:42;96086.34;;;20.76;51.53
44751;BME280;30477;48.224;11.470;2022-08-01T03:25:10;96090.00;;;20.82;51.08
44751;BME280;30477;48.224;11.470;2022-08-01T03:27:36;96088.97;;;20.83;51.13
44751;BME280;30477;48.224;11.470;2022-08-01T03:30:04;96092.81;;;20.80;50.79
44751;BME280;30477;48.224;11.470;2022-08-01T03:32:30;96092.03;;;20.80;50.74
44751;BME280;30477;48.224;11.470;2022-08-01T03:34:56;96093.25;;;20.71;51.18
44751;BME280;30477;48.224;11.470;2022-08-01T03:37:26;96105.38;;;20.65;51.15
44751;BME280;30477;48.224;11.470;2022-08-01T03:39:57;96105.38;;;20.65;51.10
44751;BME280;30477;48.224;11.470;2022-08-01T03:42:32;96102.34;;;20.68;51.12
44751;BME280;30477;48.224;11.470;2022-08-01T03:45:02;96107.59;;;20.68;51.09
44751;BME280;30477;48.224;11.470;2022-08-01T03:47:32;96108.19;;;20.57;50.97
44751;BME280;30477;48.224;11.470;2022-08-01T03:50:01;96113.44;;;20.50;51.42
44751;BME280;30477;48.224;11.470;2022-08-01T03:52:28;96111.41;;;20.45;51.29
44751;BME280;30477;48.224;11.470;2022-08-01T03:54:56;96110.59;;;20.45;51.55
44751;BME280;30477;48.224;11.470;2022-08-01T03:57:23;96106.97;;;20.53;51.32
44751;BME280;30477;48.224;11.470;2022-08-01T03:59:51;96120.34;;;20.58;50.89
44751;BME280;30477;48.224;11.470;2022-08-01T04:02:31;96119.50;;;20.57;50.90
44751;BME280;30477;48.224;11.470;2022-08-01T04:04:58;96119.75;;;20.62;50.91
44751;BME280;30477;48.224;11.470;2022-08-01T04:07:29;96121.97;;;20.65;50.74
44751;BME280;30477;48.224;11.470;2022-08-01T04:09:55;96117.31;;;20.67;51.02
44751;BME280;30477;48.224;11.470;2022-08-01T04:12:20;96126.84;;;20.68;50.49
44751;BME280;30477;48.224;11.470;2022-08-01T04:14:46;96128.25;;;20.64;50.76
44751;BME280;30477;48.224;11.470;2022-08-01T04:17:12;96128.22;;;20.58;51.08
44751;BME280;30477;48.224;11.470;2022-08-01T04:19:38;96139.75;;;20.63;50.98
44751;BME280;30477;48.224;11.470;2022-08-01T04:22:04;96136.34;;;20.63;50.80
44751;BME280;30477;48.224;11.470;2022-08-01T04:24:32;96137.94;;;20.64;50.97
44751;BME280;30477;48.224;11.470;2022-08-01T04:27:00;96138.53;;;20.59;51.16
44751;BME280;30477;48.224;11.470;2022-08-01T04:29:27;96135.72;;;20.61;51.29
44751;BME280;30477;48.224;11.470;2022-08-01T04:31:56;96137.34;;;20.68;50.68
44751;BME280;30477;48.224;11.470;2022-08-01T04:34:25;96151.91;;;20.64;50.69
44751;BME280;30477;48.224;11.470;2022-08-01T04:36:55;96147.88;;;20.68;51.36
44751;BME280;30477;48.224;11.470;2022-08-01T04:39:23;96148.28;;;20.92;50.94
44751;BME280;30477;48.224;11.470;2022-08-01T04:41:52;96141.59;;;21.09;50.51
44751;BME280;30477;48.224;11.470;2022-08-01T04:44:22;96146.81;;;21.43;50.05
44751;BME280;30477;48.224;11.470;2022-08-01T04:46:48;96147.56;;;21.70;49.31
44751;BME280;30477;48.224;11.470;2022-08-01T04:49:15;96147.75;;;21.68;49.09
44751;BME280;30477;48.224;11.470;2022-08-01T04:51:52;96146.94;;;21.75;48.96
44751;BME280;30477;48.224;11.470;2022-08-01T04:54:23;96150.97;;;21.77;48.74
44751;BME280;30477;48.224;11.470;2022-08-01T04:56:50;96146.53;;;21.78;48.96
44751;BME280;30477;48.224;11.470;2022-08-01T04:59:15;96151.41;;;21.74;48.69
44751;BME280;30477;48.224;11.470;2022-08-01T05:01:59;96149.31;;;21.89;49.33
44751;BME280;30477;48.224;11.470;2022-08-01T05:04:24;96150.69;;;22.44;48.28
44751;BME280;30477;48.224;11.470;2022-08-01T05:06:50;96147.94;;;22.89;47.29
44751;BME280;30477;48.224;11.470;2022-08-01T05:09:15;96146.59;;;23.30;46.37
44751;BME280;30477;48.224;11.470;2022-08-01T05:11:41;96148.97;;;23.57;45.72
44751;BME280;30477;48.224;11.470;2022-08-01T05:14:06;96155.34;;;23.67;45.11
44751;BME280;30477;48.224;11.470;2022-08-01T05:16:31;96147.94;;;24.13;44.39
44751;BME280;30477;48.224;11.470;2022-08-01T05:18:57;96154.00;;;24.44;43.58
44751;BME280;30477;48.224;11.470;2022-08-01T05:21:22;96157.94;;;24.71;42.83
44751;BME280;30477;48.224;11.470;2022-08-01T05:23:47;96154.25;;;24.96;42.39
44751;BME280;30477;48.224;11.470;2022-08-01T05:26:14;96164.75;;;25.15;41.37
44751;BME280;30477;48.224;11.470;2022-08-01T05:28:39;96163.44;;;24.82;42.05
44751;BME280;30477;48.224;11.470;2022-08-01T05:31:05;96164.22;;;25.24;41.60
44751;BME280;30477;48.224;11.470;2022-08-01T05:33:30;96168.47;;;25.61;40.77
44751;BME280;30477;48.224;11.470;2022-08-01T05:35:56;96169.22;;;25.97;40.34
44751;BME280;30477;48.224;11.470;2022-08-01T05:38:21;96180.66;;;25.85;39.89
44751;BME280;30477;48.224;11.470;2022-08-01T05:40:46;96169.56;;;25.88;39.71
44751;BME280;30477;48.224;11.470;2022-08-01T05:43:12;96172.88;;;26.07;39.48
44751;BME280;30477;48.224;11.470;2022-08-01T05:45:37;96177.41;;;26.36;38.91
44751;BME280;30477;48.224;11.470;2022-08-01T05:48:02;96182.19;;;26.50;38.83
44751;BME280;30477;48.224;11.470;2022-08-01T05:50:28;96176.16;;;26.67;38.51
44751;BME280;30477;48.224;11.470;2022-08-01T05:52:53;96171.00;;;26.94;38.19
44751;BME280;30477;48.224;11.470;2022-08-01T05:55:18;96180.19;;;27.03;37.33
44751;BME280;30477;48.224;11.470;2022-08-01T05:57:44;96168.59;;;27.09;37.78
44751;BME280;30477;48.224;11.470;2022-08-01T06:00:10;96174.72;;;27.27;37.19
44751;BME280;30477;48.224;11.470;2022-08-01T06:02:40;96167.00;;;27.25;36.79
44751;BME280;30477;48.224;11.470;2022-08-01T06:05:06;96170.84;;;27.18;37.13
44751;BME280;30477;48.224;11.470;2022-08-01T06:07:32;96171.59;;;27.30;37.07
44751;BME280;30477;48.224;11.470;2022-08-01T06:09:57;96175.38;;;27.34;36.17
44751;BME280;30477;48.224;11.470;2022-08-01T06:12:22;96177.13;;;27.45;36.84
44751;BME280;30477;48.224;11.470;2022-08-01T06:14:48;96178.97;;;27.84;35.99
44751;BME280;30477;48.224;11.470;2022-08-01T06:17:13;96176.22;;;27.96;35.42
44751;BME280;30477;48.224;11.470;2022-08-01T06:19:38;96178.00;;;27.90;35.02
44751;BME280;30477;48.224;11.470;2022-08-01T06:22:03;96178.66;;;27.97;35.38
44751;BME280;30477;48.224;11.470;2022-08-01T06:24:29;96183.09;;;28.41;35.06
44751;BME280;30477;48.224;11.470;2022-08-01T06:26:54;96189.81;;;28.70;34.24
44751;BME280;30477;48.224;11.470;2022-08-01T06:29:19;96188.66;;;28.88;34.37
44751;BME280;30477;48.224;11.470;2022-08-01T06:31:45;96186.50;;;28.85;33.92
44751;BME280;30477;48.224;11.470;2022-08-01T06:34:10;96192.66;;;28.91;34.07
44751;BME280;30477;48.224;11.470;2022-08-01T06:36:35;96199.09;;;28.95;34.15
44751;BME280;30477;48.224;11.470;2022-08-01T06:39:00;96203.09;;;28.92;33.64
44751;BME280;30477;48.224;11.470;2022-08-01T06:41:26;96191.31;;;29.16;33.29
44751;BME280;30477;48.224;11.470;2022-08-01T06:43:51;96189.91;;;29.45;33.28
44751;BME280;30477;48.224;11.470;2022-08-01T06:46:16;96197.59;;;29.74;32.89
44751;BME280;30477;48.224;11.470;2022-08-01T06:48:42;96196.41;;;29.65;32.37
44751;BME280;30477;48.224;11.470;2022-08-01T06:51:07;96188.50;;;29.32;33.24
44751;BME280;30477;48.224;11.470;2022-08-01T06:53:34;96192.47;;;29.30;32.91
44751;BME280;30477;48.224;11.470;2022-08-01T06:56:00;96193.13;;;29.47;32.95
44751;BME280;30477;48.224;11.470;2022-08-01T06:58:25;96193.66;;;29.49;33.01
44751;BME280;30477;48.224;11.470;2022-08-01T07:00:51;96192.56;;;29.45;33.01
44751;BME280;30477;48.224;11.470;2022-08-01T07:03:16;96193.28;;;29.73;33.09
44751;BME280;30477;48.224;11.470;2022-08-01T07:05:42;96193.88;;;29.80;32.38
44751;BME280;30477;48.224;11.470;2022-08-01T07:08:07;96188.53;;;29.80;32.54
44751;BME280;30477;48.224;11.470;2022-08-01T07:10:32;96189.16;;;29.98;32.30
44751;BME280;30477;48.224;11.470;2022-08-01T07:12:58;96187.66;;;30.22;32.31
44751;BME280;30477;48.224;11.470;2022-08-01T07:15:23;96187.78;;;30.68;31.91
44751;BME280;30477;48.224;11.470;2022-08-01T07:17:51;96182.44;;;30.58;30.74
44751;BME280;30477;48.224;11.470;2022-08-01T07:20:17;96187.72;;;30.38;31.20
44751;BME280;30477;48.224;11.470;2022-08-01T07:22:43;96190.31;;;30.27;31.08
44751;BME280;30477;48.224;11.470;2022-08-01T07:25:09;96190.44;;;30.63;31.11
44751;BME280;30477;48.224;11.470;2022-08-01T07:27:36;96191.47;;;30.47;31.32
44751;BME280;30477;48.224;11.470;2022-08-01T07:30:03;96185.88;;;30.64;30.65
44751;BME280;30477;48.224;11.470;2022-08-01T07:32:29;96187.25;;;30.66;31.03
44751;BME280;30477;48.224;11.470;2022-08-01T07:34:55;96187.72;;;30.43;30.71
44751;BME280;30477;48.224;11.470;2022-08-01T07:37:21;96190.94;;;30.55;31.36
44751;BME280;30477;48.224;11.470;2022-08-01T07:39:46;96192.31;;;30.68;30.75
44751;BME280;30477;48.224;11.470;2022-08-01T07:42:12;96184.31;;;30.73;30.93
44751;BME280;30477;48.224;11.470;2022-08-01T07:44:37;96188.63;;;31.05;31.01
44751;BME280;30477;48.224;11.470;2022-08-01T07:47:03;96186.78;;;31.00;30.37
44751;BME280;30477;48.224;11.470;2022-08-01T07:49:29;96189.44;;;31.15;30.33
44751;BME280;30477;48.224;11.470;2022-08-01T07:51:55;96186.72;;;30.85;30.62
44751;BME280;30477;48.224;11.470;2022-08-01T07:54:20;96193.16;;;30.99;30.98
44751;BME280;30477;48.224;11.470;2022-08-01T07:56:49;96188.34;;;31.37;30.06
44751;BME280;30477;48.224;11.470;2022-08-01T07:59:14;96183.00;;;31.47;29.74
44751;BME280;30477;48.224;11.470;2022-08-01T08:01:40;96184.06;;;31.57;29.95
44751;BME280;30477;48.224;11.470;2022-08-01T08:04:06;96178.97;;;31.55;29.13
44751;BME280;30477;48.224;11.470;2022-08-01T08:06:32;96180.84;;;31.29;29.89
44751;BME280;30477;48.224;11.470;2022-08-01T08:08:57;96180.03;;;31.39;30.49
44751;BME280;30477;48.224;11.470;2022-08-01T08:11:22;96176.31;;;31.40;30.00
44751;BME280;30477;48.224;11.470;2022-08-01T08:13:48;96183.56;;;31.19;31.08
44751;BME280;30477;48.224;11.470;2022-08-01T08:16:13;96174.91;;;31.73;30.27
44751;BME280;30477;48.224;11.470;2022-08-01T08:18:39;96181.31;;;31.77;29.69
44751;BME280;30477;48.224;11.470;2022-08-01T08:21:04;96180.22;;;31.83;30.39
44751;BME280;30477;48.224;11.470;2022-08-01T08:23:29;96170.88;;;31.81;29.81
44751;BME280;30477;48.224;11.470;2022-08-01T08:26:13;96172.06;;;31.44;29.92
44751;BME280;30477;48.224;11.470;2022-08-01T08:28:39;96178.16;;;31.65;29.88
44751;BME280;30477;48.224;11.470;2022-08-01T08:31:04;96173.81;;;31.79;29.71
44751;BME280;30477;48.224;11.470;2022-08-01T08:33:29;96178.19;;;31.44;30.03
44751;BME280;30477;48.224;11.470;2022-08-01T08:35:55;96175.50;;;31.65;30.22
44751;BME280;30477;48.224;11.470;2022-08-01T08:38:20;96172.81;;;31.65;29.99
44751;BME280;30477;48.224;11.470;2022-08-01T08:40:46;96170.59;;;31.77;30.29
44751;BME280;30477;48.224;11.470;2022-08-01T08:43:11;96170.88;;;31.86;29.92
44751;BME280;30477;48.224;11.470;2022-08-01T08:45:37;96172.84;;;31.34;30.34
44751;BME280;30477;48.224;11.470;2022-08-01T08:48:05;96171.19;;;31.69;30.44
44751;BME280;30477;48.224;11.470;2022-08-01T08:50:31;96162.13;;;31.34;30.98
44751;BME280;30477;48.224;11.470;2022-08-01T08:53:00;96176.06;;;31.21;30.16
44751;BME280;30477;48.224;11.470;2022-08-01T08:55:27;96170.94;;;30.78;31.50
44751;BME280;30477;48.224;11.470;2022-08-01T08:57:53;96175.81;;;30.91;31.70
44751;BME280;30477;48.224;11.470;2022-08-01T09:00:19;96174.44;;;30.84;31.48
44751;BME280;30477;48.224;11.470;2022-08-01T09:02:46;96177.66;;;30.81;31.59
44751;BME280;30477;48.224;11.470;2022-08-01T09:05:14;96179.53;;;31.01;30.97
44751;BME280;30477;48.224;11.470;2022-08-01T09:07:39;96169.63;;;31.22;30.39
44751;BME280;30477;48.224;11.470;2022-08-01T09:10:05;96172.28;;;31.42;30.53
44751;BME280;30477;48.224;11.470;2022-08-01T09:12:31;96164.78;;;31.65;30.27
44751;BME280;30477;48.224;11.470;2022-08-01T09:14:58;96164.19;;;31.73;29.95
44751;BME280;30477;48.224;11.470;2022-08-01T09:17:24;96163.31;;;31.98;29.81
44751;BME280;30477;48.224;11.470;2022-08-01T09:19:52;96157.19;;;32.03;30.07
44751;BME280;30477;48.224;11.470;2022-08-01T09:22:20;96165.97;;;32.13;29.96
44751;BME280;30477;48.224;11.470;2022-08-01T09:27:25;96159.16;;;31.56;30.05
44751;BME280;30477;48.224;11.470;2022-08-01T09:29:54;96166.44;;;31.04;31.07
44751;BME280;30477;48.224;11.470;2022-08-01T09:32:31;96161.59;;;30.86;30.86
44751;BME280;30477;48.224;11.470;2022-08-01T09:34:59;96169.63;;;30.86;31.22
44751;BME280;30477;48.224;11.470;2022-08-01T09:37:43;96168.59;;;31.02;30.91
44751;BME280;30477;48.224;11.470;2022-08-01T09:40:09;96160.03;;;31.21;30.81
44751;BME280;30477;48.224;11.470;2022-08-01T09:42:34;96159.47;;;31.44;30.34
44751;BME280;30477;48.224;11.470;2022-08-01T09:44:59;96166.44;;;30.79;31.23
44751;BME280;30477;48.224;11.470;2022-08-01T09:47:37;96167.72;;;30.66;31.47
44751;BME280;30477;48.224;11.470;2022-08-01T09:50:03;96169.09;;;30.68;31.73
44751;BME280;30477;48.224;11.470;2022-08-01T09:52:29;96171.25;;;30.87;31.56
44751;BME280;30477;48.224;11.470;2022-08-01T09:54:59;96163.22;;;30.77;31.24
44751;BME280;30477;48.224;11.470;2022-08-01T09:57:25;96162.41;;;30.81;30.68
44751;BME280;30477;48.224;11.470;2022-08-01T09:59:54;96163.75;;;30.99;30.57
44751;BME280;30477;48.224;11.470;2022-08-01T10:02:46;96156.50;;;30.64;31.07
44751;BME280;30477;48.224;11.470;2022-08-01T10:05:11;96159.41;;;30.37;31.59
44751;BME280;30477;48.224;11.470;2022-08-01T10:07:58;96158.34;;;30.43;32.21
44751;BME280;30477;48.224;11.470;2022-08-01T10:10:24;96160.91;;;30.17;32.43
44751;BME280;30477;48.224;11.470;2022-08-01T10:12:51;96148.47;;;29.75;32.18
44751;BME280;30477;48.224;11.470;2022-08-01T10:15:17;96151.00;;;29.49;32.62
44751;BME280;30477;48.224;11.470;2022-08-01T10:18:06;96157.09;;;29.87;32.39
44751;BME280;30477;48.224;11.470;2022-08-01T10:20:33;96154.34;;;29.72;33.33
44751;BME280;30477;48.224;11.470;2022-08-01T10:23:02;96150.28;;;29.64;32.64
44751;BME280;30477;48.224;11.470;2022-08-01T10:25:29;96150.88;;;29.71;33.09
44751;BME280;30477;48.224;11.470;2022-08-01T10:27:59;96155.50;;;29.86;32.63
44751;BME280;30477;48.224;11.470;2022-08-01T10:30:26;96150.16;;;29.86;32.61
44751;BME280;30477;48.224;11.470;2022-08-01T10:32:52;96142.19;;;29.97;32.33
44751;BME280;30477;48.224;11.470;2022-08-01T10:35:19;96148.66;;;30.16;32.28
44751;BME280;30477;48.224;11.470;2022-08-01T10:37:45;96140.34;;;30.07;32.00
44751;BME280;30477;48.224;11.470;2022-08-01T10:40:12;96148.03;;;29.99;32.04
44751;BME280;30477;48.224;11.470;2022-08-01T10:42:42;96138.59;;;29.75;32.45
44751;BME280;30477;48.224;11.470;2022-08-01T10:45:13;96139.69;;;29.80;32.68
44751;BME280;30477;48.224;11.470;2022-08-01T10:47:48;96134.09;;;29.76;31.69
44751;BME280;30477;48.224;11.470;2022-08-01T10:50:29;96139.53;;;29.49;32.44
44751;BME280;30477;48.224;11.470;2022-08-01T10:58:46;96121.19;;;28.83;33.09
44751;BME280;30477;48.224;11.470;2022-08-01T11:06:48;96122.56;;;29.23;33.32
44751;BME280;30477;48.224;11.470;2022-08-01T11:12:01;96109.09;;;29.02;32.51
44751;BME280;30477;48.224;11.470;2022-08-01T11:14:29;96114.22;;;29.09;33.13
44751;BME280;30477;48.224;11.470;2022-08-01T11:16:55;96104.19;;;28.89;33.04
44751;BME280;30477;48.224;11.470;2022-08-01T11:19:21;96107.94;;;28.88;32.70
44751;BME280;30477;48.224;11.470;2022-08-01T11:29:43;96089.69;;;28.74;32.75
44751;BME280;30477;48.224;11.470;2022-08-01T11:32:24;96097.19;;;28.78;33.08
44751;BME280;30477;48.224;11.470;2022-08-01T11:34:54;96091.50;;;29.01;32.38
44751;BME280;30477;48.224;11.470;2022-08-01T11:37:26;96084.56;;;29.00;32.64
44751;BME280;30477;48.224;11.470;2022-08-01T11:40:14;96095.31;;;28.73;33.22
44751;BME280;30477;48.224;11.470;2022-08-01T11:42:40;96090.47;;;28.43;33.50
44751;BME280;30477;48.224;11.470;2022-08-01T11:45:06;96090.22;;;28.44;33.38
44751;BME280;30477;48.224;11.470;2022-08-01T11:47:50;96090.38;;;28.32;33.92
44751;BME280;30477;48.224;11.470;2022-08-01T11:53:20;96087.88;;;28.48;33.82
44751;BME280;30477;48.224;11.470;2022-08-01T11:55:47;96084.56;;;28.36;33.72
44751;BME280;30477;48.224;11.470;2022-08-01T11:58:21;96096.72;;;28.26;33.68
44751;BME280;30477;48.224;11.470;2022-08-01T12:00:54;96080.25;;;28.29;33.93
44751;BME280;30477;48.224;11.470;2022-08-01T12:03:28;96082.00;;;28.46;33.75
44751;BME280;30477;48.224;11.470;2022-08-01T12:05:55;96075.59;;;28.47;33.58
44751;BME280;30477;48.224;11.470;2022-08-01T12:08:27;96075.47;;;28.59;33.79
44751;BME280;30477;48.224;11.470;2022-08-01T12:10:54;96073.13;;;28.62;32.92
44751;BME280;30477;48.224;11.470;2022-08-01T12:13:19;96071.66;;;28.82;33.20
44751;BME280;30477;48.224;11.470;2022-08-01T12:15:46;96070.56;;;28.78;32.43
44751;BME280;30477;48.224;11.470;2022-08-01T12:18:12;96069.47;;;28.73;33.03
44751;BME280;30477;48.224;11.470;2022-08-01T12:20:38;96072.16;;;28.79;32.49
44751;BME280;30477;48.224;11.470;2022-08-01T12:23:07;96062.50;;;28.72;33.11
44751;BME280;30477;48.224;11.470;2022-08-01T12:25:33;96055.50;;;28.61;32.24
44751;BME280;30477;48.224;11.470;2022-08-01T12:28:04;96056.03;;;28.58;32.60
44751;BME280;30477;48.224;11.470;2022-08-01T12:30:31;96058.66;;;28.53;32.84
44751;BME280;30477;48.224;11.470;2022-08-01T12:32:57;96047.19;;;28.52;32.01
44751;BME280;30477;48.224;11.470;2022-08-01T12:35:24;96062.19;;;28.64;32.50
44751;BME280;30477;48.224;11.470;2022-08-01T12:37:52;96044.63;;;28.68;31.89
44751;BME280;30477;48.224;11.470;2022-08-01T12:40:29;96051.84;;;28.72;31.91
44751;BME280;30477;48.224;11.470;2022-08-01T12:42:57;96063.00;;;28.64;31.50
44751;BME280;30477;48.224;11.470;2022-08-01T12:45:29;96059.25;;;28.60;31.49
44751;BME280;30477;48.224;11.470;2022-08-01T12:47:55;96061.16;;;28.38;31.93
44751;BME280;30477;48.224;11.470;2022-08-01T12:50:29;96059.97;;;28.23;32.41
44751;BME280;30477;48.224;11.470;2022-08-01T12:52:57;96055.69;;;28.22;32.57
44751;BME280;30477;48.224;11.470;2022-08-01T12:55:26;96056.41;;;28.12;32.38
44751;BME280;30477;48.224;11.470;2022-08-01T12:58:11;96055.06;;;28.10;32.97
44751;BME280;30477;48.224;11.470;2022-08-01T13:00:38;96052.84;;;28.02;32.76
44751;BME280;30477;48.224;11.470;2022-08-01T13:03:07;96058.06;;;27.91;33.27
44751;BME280;30477;48.224;11.470;2022-08-01T13:05:52;96058.53;;;27.88;33.33
44751;BME280;30477;48.224;11.470;2022-08-01T13:08:32;96062.00;;;27.67;33.34
44751;BME280;30477;48.224;11.470;2022-08-01T13:11:01;96058.75;;;27.60;33.62
44751;BME280;30477;48.224;11.470;2022-08-01T13:13:38;96062.25;;;27.43;34.29
44751;BME280;30477;48.224;11.470;2022-08-01T13:16:04;96064.91;;;27.43;34.34
44751;BME280;30477;48.224;11.470;2022-08-01T13:18:32;96070.78;;;27.45;34.59
44751;BME280;30477;48.224;11.470;2022-08-01T13:21:18;96069.13;;;27.39;35.08
44751;BME280;30477;48.224;11.470;2022-08-01T13:26:45;96068.44;;;27.27;35.69
44751;BME280;30477;48.224;11.470;2022-08-01T13:29:14;96064.56;;;27.18;36.20
44751;BME280;30477;48.224;11.470;2022-08-01T13:31:41;96062.38;;;27.14;36.17